sensor_id;sensor_type;location;lat;lon;timestamp;P1;durP1;ratioP1;P2;durP2;ratioP2
35699;SDS011;21818;51.078;12.108;2023-08-17T00:02:12;8.15;;;4.82;;
35699;SDS011;21818;51.078;12.108;2023-08-17T00:04:38;7.50;;;4.25;;
35699;SDS011;21818;51.078;12.108;2023-08-17T00:07:05;5.88;;;4.57;;
35699;SDS011;21818;51.078;12.108;2023-08-17T00:09:31;5.82;;;4.55;;
35699;SDS011;21818;51.078;12.108;2023-08-17T00:11:57;7.88;;;4.55;;
35699;SDS011;21818;51.078;12.108;2023-08-17T00:14:23;7.75;;;3.85;;
35699;SDS011;21818;51.078;12.108;2023-08-17T00:16:49;5.63;;;4.43;;
35699;SDS011;21818;51.078;12.108;2023-08-17T00:19:15;7.85;;;4.47;;
35699;SDS011;21818;51.078;12.108;2023-08-17T00:21:41;7.10;;;4.70;;
35699;SDS011;21818;51.078;12.108;2023-08-17T00:24:07;6.75;;;4.57;;
35699;SDS011;21818;51.078;12.108;2023-08-17T00:26:33;9.35;;;4.03;;
35699;SDS011;21818;51.078;12.108;2023-08-17T00:28:58;8.30;;;4.30;;
35699;SDS011;21818;51.078;12.108;2023-08-17T00:31:24;5.90;;;3.75;;
35699;SDS011;21818;51.078;12.108;2023-08-17T00:33:49;4.60;;;3.83;;
35699;SDS011;21818;51.078;12.108;2023-08-17T00:36:15;5.25;;;4.30;;
35699;SDS011;21818;51.078;12.108;2023-08-17T00:38:41;7.93;;;5.75;;
35699;SDS011;21818;51.078;12.108;2023-08-17T00:41:06;7.20;;;4.97;;
35699;SDS011;21818;51.078;12.108;2023-08-17T00:43:32;7.32;;;4.75;;
35699;SDS011;21818;51.078;12.108;2023-08-17T00:45:58;8.77;;;4.85;;
35699;SDS011;21818;51.078;12.108;2023-08-17T00:48:23;10.45;;;5.40;;
35699;SDS011;21818;51.078;12.108;2023-08-17T00:50:51;12.35;;;4.90;;
35699;SDS011;21818;51.078;12.108;2023-08-17T00:53:18;6.75;;;4.57;;
35699;SDS011;21818;51.078;12.108;2023-08-17T00:55:44;4.78;;;4.10;;
35699;SDS011;21818;51.078;12.108;2023-08-17T00:58:10;7.68;;;4.85;;
35699;SDS011;21818;51.078;12.108;2023-08-17T01:00:36;5.70;;;4.60;;
35699;SDS011;21818;51.078;12.108;2023-08-17T01:03:02;5.70;;;4.60;;
35699;SDS011;21818;51.078;12.108;2023-08-17T01:05:29;7.20;;;4.65;;
35699;SDS011;21818;51.078;12.108;2023-08-17T01:07:57;8.68;;;5.10;;
35699;SDS011;21818;51.078;12.108;2023-08-17T01:10:25;7.75;;;4.72;;
35699;SDS011;21818;51.078;12.108;2023-08-17T01:13:05;6.50;;;4.63;;
35699;SDS011;21818;51.078;12.108;2023-08-17T01:15:36;9.32;;;4.53;;
35699;SDS011;21818;51.078;12.108;2023-08-17T01:18:14;6.35;;;4.15;;
35699;SDS011;21818;51.078;12.108;2023-08-17T01:20:47;6.45;;;4.60;;
35699;SDS011;21818;51.078;12.108;2023-08-17T01:23:14;5.55;;;4.43;;
35699;SDS011;21818;51.078;12.108;2023-08-17T01:25:40;8.27;;;5.10;;
35699;SDS011;21818;51.078;12.108;2023-08-17T01:28:05;6.97;;;5.13;;
35699;SDS011;21818;51.078;12.108;2023-08-17T01:30:33;7.43;;;5.15;;
35699;SDS011;21818;51.078;12.108;2023-08-17T01:33:09;5.97;;;4.57;;
35699;SDS011;21818;51.078;12.108;2023-08-17T01:35:39;6.28;;;4.90;;
35699;SDS011;21818;51.078;12.108;2023-08-17T01:38:24;6.80;;;5.20;;
35699;SDS011;21818;51.078;12.108;2023-08-17T01:40:53;5.65;;;4.28;;
35699;SDS011;21818;51.078;12.108;2023-08-17T01:43:20;6.10;;;3.10;;
35699;SDS011;21818;51.078;12.108;2023-08-17T01:45:46;2.33;;;1.90;;
35699;SDS011;21818;51.078;12.108;2023-08-17T01:48:11;5.35;;;1.73;;
35699;SDS011;21818;51.078;12.108;2023-08-17T01:50:37;3.92;;;1.70;;
35699;SDS011;21818;51.078;12.108;2023-08-17T01:53:03;3.47;;;1.25;;
35699;SDS011;21818;51.078;12.108;2023-08-17T01:55:28;1.48;;;1.20;;
35699;SDS011;21818;51.078;12.108;2023-08-17T01:57:54;5.07;;;0.85;;
35699;SDS011;21818;51.078;12.108;2023-08-17T02:00:20;1.77;;;1.17;;
35699;SDS011;21818;51.078;12.108;2023-08-17T02:02:45;5.05;;;0.95;;
35699;SDS011;21818;51.078;12.108;2023-08-17T02:05:11;2.90;;;0.80;;
35699;SDS011;21818;51.078;12.108;2023-08-17T02:07:37;2.97;;;0.90;;
35699;SDS011;21818;51.078;12.108;2023-08-17T02:10:02;3.10;;;1.00;;
35699;SDS011;21818;51.078;12.108;2023-08-17T02:12:28;1.83;;;0.93;;
35699;SDS011;21818;51.078;12.108;2023-08-17T02:14:54;6.07;;;1.20;;
35699;SDS011;21818;51.078;12.108;2023-08-17T02:17:19;2.63;;;1.00;;
35699;SDS011;21818;51.078;12.108;2023-08-17T02:19:46;4.10;;;1.20;;
35699;SDS011;21818;51.078;12.108;2023-08-17T02:22:13;4.38;;;1.25;;
35699;SDS011;21818;51.078;12.108;2023-08-17T02:24:39;2.78;;;1.30;;
35699;SDS011;21818;51.078;12.108;2023-08-17T02:27:05;5.18;;;0.90;;
35699;SDS011;21818;51.078;12.108;2023-08-17T02:29:31;1.35;;;0.65;;
35699;SDS011;21818;51.078;12.108;2023-08-17T02:31:57;3.45;;;0.90;;
35699;SDS011;21818;51.078;12.108;2023-08-17T02:34:23;3.90;;;0.80;;
35699;SDS011;21818;51.078;12.108;2023-08-17T02:36:48;1.40;;;0.60;;
35699;SDS011;21818;51.078;12.108;2023-08-17T02:39:14;1.50;;;0.75;;
35699;SDS011;21818;51.078;12.108;2023-08-17T02:41:39;2.63;;;0.98;;
35699;SDS011;21818;51.078;12.108;2023-08-17T02:44:05;3.42;;;0.90;;
35699;SDS011;21818;51.078;12.108;2023-08-17T02:46:31;2.85;;;0.73;;
35699;SDS011;21818;51.078;12.108;2023-08-17T02:48:57;2.10;;;0.80;;
35699;SDS011;21818;51.078;12.108;2023-08-17T02:51:22;2.95;;;0.70;;
35699;SDS011;21818;51.078;12.108;2023-08-17T02:53:48;3.03;;;0.70;;
35699;SDS011;21818;51.078;12.108;2023-08-17T02:56:13;4.40;;;0.77;;
35699;SDS011;21818;51.078;12.108;2023-08-17T02:58:39;2.28;;;0.90;;
35699;SDS011;21818;51.078;12.108;2023-08-17T03:01:06;6.85;;;0.90;;
35699;SDS011;21818;51.078;12.108;2023-08-17T03:03:32;2.33;;;0.70;;
35699;SDS011;21818;51.078;12.108;2023-08-17T03:05:57;1.77;;;0.60;;
35699;SDS011;21818;51.078;12.108;2023-08-17T03:08:23;2.22;;;0.70;;
35699;SDS011;21818;51.078;12.108;2023-08-17T03:10:49;1.45;;;0.70;;
35699;SDS011;21818;51.078;12.108;2023-08-17T03:13:14;1.10;;;0.52;;
35699;SDS011;21818;51.078;12.108;2023-08-17T03:15:40;1.80;;;0.90;;
35699;SDS011;21818;51.078;12.108;2023-08-17T03:18:06;1.85;;;0.77;;
35699;SDS011;21818;51.078;12.108;2023-08-17T03:20:31;3.70;;;0.68;;
35699;SDS011;21818;51.078;12.108;2023-08-17T03:22:57;0.68;;;0.40;;
35699;SDS011;21818;51.078;12.108;2023-08-17T03:25:22;1.92;;;0.63;;
35699;SDS011;21818;51.078;12.108;2023-08-17T03:27:48;2.13;;;0.70;;
35699;SDS011;21818;51.078;12.108;2023-08-17T03:30:14;5.78;;;0.85;;
35699;SDS011;21818;51.078;12.108;2023-08-17T03:32:39;4.57;;;0.88;;
35699;SDS011;21818;51.078;12.108;2023-08-17T03:35:06;4.53;;;1.10;;
35699;SDS011;21818;51.078;12.108;2023-08-17T03:37:32;3.22;;;0.80;;
35699;SDS011;21818;51.078;12.108;2023-08-17T03:39:57;3.53;;;0.77;;
35699;SDS011;21818;51.078;12.108;2023-08-17T03:42:23;3.95;;;1.20;;
35699;SDS011;21818;51.078;12.108;2023-08-17T03:44:48;4.45;;;0.82;;
35699;SDS011;21818;51.078;12.108;2023-08-17T03:47:14;2.65;;;1.00;;
35699;SDS011;21818;51.078;12.108;2023-08-17T03:49:39;1.70;;;0.60;;
35699;SDS011;21818;51.078;12.108;2023-08-17T03:52:05;1.67;;;0.80;;
35699;SDS011;21818;51.078;12.108;2023-08-17T03:54:31;1.58;;;0.70;;
35699;SDS011;21818;51.078;12.108;2023-08-17T03:56:56;3.17;;;0.70;;
35699;SDS011;21818;51.078;12.108;2023-08-17T03:59:22;5.15;;;0.77;;
35699;SDS011;21818;51.078;12.108;2023-08-17T04:01:47;2.75;;;0.98;;
35699;SDS011;21818;51.078;12.108;2023-08-17T04:04:15;3.40;;;1.00;;
35699;SDS011;21818;51.078;12.108;2023-08-17T04:06:41;4.03;;;1.20;;
35699;SDS011;21818;51.078;12.108;2023-08-17T04:09:06;3.30;;;0.75;;
35699;SDS011;21818;51.078;12.108;2023-08-17T04:11:34;3.88;;;2.00;;
35699;SDS011;21818;51.078;12.108;2023-08-17T04:14:01;2.47;;;1.08;;
35699;SDS011;21818;51.078;12.108;2023-08-17T04:16:27;4.65;;;1.30;;
35699;SDS011;21818;51.078;12.108;2023-08-17T04:18:53;3.80;;;0.90;;
35699;SDS011;21818;51.078;12.108;2023-08-17T04:21:18;2.38;;;0.80;;
35699;SDS011;21818;51.078;12.108;2023-08-17T04:23:45;1.38;;;0.70;;
35699;SDS011;21818;51.078;12.108;2023-08-17T04:26:11;2.63;;;1.10;;
35699;SDS011;21818;51.078;12.108;2023-08-17T04:28:36;2.95;;;0.98;;
35699;SDS011;21818;51.078;12.108;2023-08-17T04:31:02;5.32;;;1.58;;
35699;SDS011;21818;51.078;12.108;2023-08-17T04:33:27;4.85;;;1.48;;
35699;SDS011;21818;51.078;12.108;2023-08-17T04:35:53;3.78;;;1.67;;
35699;SDS011;21818;51.078;12.108;2023-08-17T04:38:19;2.38;;;1.52;;
35699;SDS011;21818;51.078;12.108;2023-08-17T04:40:44;5.45;;;1.17;;
35699;SDS011;21818;51.078;12.108;2023-08-17T04:43:10;6.10;;;1.63;;
35699;SDS011;21818;51.078;12.108;2023-08-17T04:45:36;2.22;;;1.20;;
35699;SDS011;21818;51.078;12.108;2023-08-17T04:48:01;3.80;;;1.38;;
35699;SDS011;21818;51.078;12.108;2023-08-17T04:50:27;3.60;;;1.20;;
35699;SDS011;21818;51.078;12.108;2023-08-17T04:52:53;2.88;;;1.50;;
35699;SDS011;21818;51.078;12.108;2023-08-17T04:55:18;2.83;;;1.17;;
35699;SDS011;21818;51.078;12.108;2023-08-17T04:57:44;6.38;;;1.13;;
35699;SDS011;21818;51.078;12.108;2023-08-17T05:00:10;2.65;;;1.10;;
35699;SDS011;21818;51.078;12.108;2023-08-17T05:02:37;9.18;;;1.20;;
35699;SDS011;21818;51.078;12.108;2023-08-17T05:05:04;2.97;;;0.80;;
35699;SDS011;21818;51.078;12.108;2023-08-17T05:07:31;3.85;;;1.02;;
35699;SDS011;21818;51.078;12.108;2023-08-17T05:09:56;1.75;;;0.77;;
35699;SDS011;21818;51.078;12.108;2023-08-17T05:12:22;3.17;;;1.20;;
35699;SDS011;21818;51.078;12.108;2023-08-17T05:14:48;2.92;;;1.38;;
35699;SDS011;21818;51.078;12.108;2023-08-17T05:17:13;2.00;;;1.00;;
35699;SDS011;21818;51.078;12.108;2023-08-17T05:19:39;2.50;;;0.70;;
35699;SDS011;21818;51.078;12.108;2023-08-17T05:22:09;3.53;;;0.90;;
35699;SDS011;21818;51.078;12.108;2023-08-17T05:27:03;1.98;;;0.88;;
35699;SDS011;21818;51.078;12.108;2023-08-17T05:29:29;1.52;;;1.00;;
35699;SDS011;21818;51.078;12.108;2023-08-17T05:31:57;1.95;;;0.65;;
35699;SDS011;21818;51.078;12.108;2023-08-17T05:34:23;2.75;;;0.82;;
35699;SDS011;21818;51.078;12.108;2023-08-17T05:36:49;1.48;;;0.63;;
35699;SDS011;21818;51.078;12.108;2023-08-17T05:39:14;2.55;;;0.88;;
35699;SDS011;21818;51.078;12.108;2023-08-17T05:41:40;3.53;;;0.93;;
35699;SDS011;21818;51.078;12.108;2023-08-17T05:44:06;3.05;;;0.90;;
35699;SDS011;21818;51.078;12.108;2023-08-17T05:46:32;1.75;;;0.60;;
35699;SDS011;21818;51.078;12.108;2023-08-17T05:48:58;3.30;;;0.85;;
35699;SDS011;21818;51.078;12.108;2023-08-17T05:51:25;1.95;;;0.85;;
35699;SDS011;21818;51.078;12.108;2023-08-17T05:53:50;1.27;;;0.85;;
35699;SDS011;21818;51.078;12.108;2023-08-17T05:56:16;3.55;;;1.23;;
35699;SDS011;21818;51.078;12.108;2023-08-17T05:58:42;1.63;;;0.60;;
35699;SDS011;21818;51.078;12.108;2023-08-17T06:01:08;4.47;;;0.98;;
35699;SDS011;21818;51.078;12.108;2023-08-17T06:03:35;1.08;;;0.60;;
35699;SDS011;21818;51.078;12.108;2023-08-17T06:06:02;1.80;;;0.80;;
35699;SDS011;21818;51.078;12.108;2023-08-17T06:08:28;2.33;;;0.68;;
35699;SDS011;21818;51.078;12.108;2023-08-17T06:10:54;2.10;;;0.63;;
35699;SDS011;21818;51.078;12.108;2023-08-17T06:13:20;3.08;;;0.90;;
35699;SDS011;21818;51.078;12.108;2023-08-17T06:15:45;2.13;;;0.73;;
35699;SDS011;21818;51.078;12.108;2023-08-17T06:18:11;1.45;;;0.60;;
35699;SDS011;21818;51.078;12.108;2023-08-17T06:20:36;2.45;;;0.70;;
35699;SDS011;21818;51.078;12.108;2023-08-17T06:23:02;5.57;;;1.00;;
35699;SDS011;21818;51.078;12.108;2023-08-17T06:25:28;2.03;;;0.63;;
35699;SDS011;21818;51.078;12.108;2023-08-17T06:27:54;2.50;;;0.85;;
35699;SDS011;21818;51.078;12.108;2023-08-17T06:30:19;3.55;;;0.80;;
35699;SDS011;21818;51.078;12.108;2023-08-17T06:32:45;1.05;;;0.68;;
35699;SDS011;21818;51.078;12.108;2023-08-17T06:35:10;1.33;;;0.60;;
35699;SDS011;21818;51.078;12.108;2023-08-17T06:37:36;1.38;;;0.77;;
35699;SDS011;21818;51.078;12.108;2023-08-17T06:40:02;1.33;;;0.70;;
35699;SDS011;21818;51.078;12.108;2023-08-17T06:42:30;2.38;;;0.90;;
35699;SDS011;21818;51.078;12.108;2023-08-17T06:44:56;1.80;;;0.80;;
35699;SDS011;21818;51.078;12.108;2023-08-17T06:47:21;2.60;;;1.00;;
35699;SDS011;21818;51.078;12.108;2023-08-17T06:49:47;3.85;;;0.88;;
35699;SDS011;21818;51.078;12.108;2023-08-17T06:52:12;3.20;;;0.98;;
35699;SDS011;21818;51.078;12.108;2023-08-17T06:54:38;4.68;;;0.98;;
35699;SDS011;21818;51.078;12.108;2023-08-17T06:57:04;1.48;;;0.68;;
35699;SDS011;21818;51.078;12.108;2023-08-17T06:59:30;1.48;;;0.88;;
35699;SDS011;21818;51.078;12.108;2023-08-17T07:01:58;1.60;;;0.93;;
35699;SDS011;21818;51.078;12.108;2023-08-17T07:04:23;4.55;;;1.10;;
35699;SDS011;21818;51.078;12.108;2023-08-17T07:06:49;1.58;;;0.80;;
35699;SDS011;21818;51.078;12.108;2023-08-17T07:09:15;3.63;;;1.40;;
35699;SDS011;21818;51.078;12.108;2023-08-17T07:11:41;3.60;;;0.70;;
35699;SDS011;21818;51.078;12.108;2023-08-17T07:14:06;3.83;;;1.05;;
35699;SDS011;21818;51.078;12.108;2023-08-17T07:16:32;1.48;;;0.90;;
35699;SDS011;21818;51.078;12.108;2023-08-17T07:18:58;1.70;;;0.85;;
35699;SDS011;21818;51.078;12.108;2023-08-17T07:21:24;2.15;;;0.73;;
35699;SDS011;21818;51.078;12.108;2023-08-17T07:23:50;2.15;;;0.80;;
35699;SDS011;21818;51.078;12.108;2023-08-17T07:26:16;1.10;;;0.80;;
35699;SDS011;21818;51.078;12.108;2023-08-17T07:28:44;3.58;;;1.17;;
35699;SDS011;21818;51.078;12.108;2023-08-17T07:31:10;2.60;;;0.90;;
35699;SDS011;21818;51.078;12.108;2023-08-17T07:33:36;2.90;;;1.00;;
35699;SDS011;21818;51.078;12.108;2023-08-17T07:36:02;3.90;;;1.05;;
35699;SDS011;21818;51.078;12.108;2023-08-17T07:38:28;3.10;;;0.93;;
35699;SDS011;21818;51.078;12.108;2023-08-17T07:40:54;2.67;;;1.30;;
35699;SDS011;21818;51.078;12.108;2023-08-17T07:43:20;3.70;;;1.30;;
35699;SDS011;21818;51.078;12.108;2023-08-17T07:45:52;4.85;;;0.90;;
35699;SDS011;21818;51.078;12.108;2023-08-17T07:48:19;2.05;;;1.17;;
35699;SDS011;21818;51.078;12.108;2023-08-17T07:50:47;2.53;;;1.40;;
35699;SDS011;21818;51.078;12.108;2023-08-17T07:53:17;2.97;;;1.10;;
35699;SDS011;21818;51.078;12.108;2023-08-17T07:55:44;2.63;;;1.25;;
35699;SDS011;21818;51.078;12.108;2023-08-17T07:58:09;3.67;;;1.58;;
35699;SDS011;21818;51.078;12.108;2023-08-17T08:00:35;2.28;;;1.30;;
35699;SDS011;21818;51.078;12.108;2023-08-17T08:03:01;2.47;;;1.50;;
35699;SDS011;21818;51.078;12.108;2023-08-17T08:05:26;2.88;;;1.50;;
35699;SDS011;21818;51.078;12.108;2023-08-17T08:07:52;1.70;;;1.15;;
35699;SDS011;21818;51.078;12.108;2023-08-17T08:10:18;1.98;;;1.67;;
35699;SDS011;21818;51.078;12.108;2023-08-17T08:12:44;2.65;;;1.80;;
35699;SDS011;21818;51.078;12.108;2023-08-17T08:15:09;5.45;;;1.58;;
35699;SDS011;21818;51.078;12.108;2023-08-17T08:17:35;2.33;;;1.40;;
35699;SDS011;21818;51.078;12.108;2023-08-17T08:20:02;5.10;;;1.70;;
35699;SDS011;21818;51.078;12.108;2023-08-17T08:22:28;3.35;;;2.17;;
35699;SDS011;21818;51.078;12.108;2023-08-17T08:24:53;3.72;;;1.80;;
35699;SDS011;21818;51.078;12.108;2023-08-17T08:27:19;3.95;;;1.90;;
35699;SDS011;21818;51.078;12.108;2023-08-17T08:29:44;2.47;;;1.95;;
35699;SDS011;21818;51.078;12.108;2023-08-17T08:32:10;2.40;;;1.85;;
35699;SDS011;21818;51.078;12.108;2023-08-17T08:34:36;2.88;;;1.98;;
35699;SDS011;21818;51.078;12.108;2023-08-17T08:37:01;1.70;;;1.50;;
35699;SDS011;21818;51.078;12.108;2023-08-17T08:39:27;2.13;;;1.67;;
35699;SDS011;21818;51.078;12.108;2023-08-17T08:41:53;2.83;;;1.92;;
35699;SDS011;21818;51.078;12.108;2023-08-17T08:44:19;3.45;;;1.58;;
35699;SDS011;21818;51.078;12.108;2023-08-17T08:46:45;3.55;;;2.15;;
35699;SDS011;21818;51.078;12.108;2023-08-17T08:49:11;2.47;;;1.30;;
35699;SDS011;21818;51.078;12.108;2023-08-17T08:51:44;1.23;;;1.00;;
35699;SDS011;21818;51.078;12.108;2023-08-17T08:54:12;2.50;;;0.90;;
35699;SDS011;21818;51.078;12.108;2023-08-17T08:56:39;1.77;;;1.00;;
35699;SDS011;21818;51.078;12.108;2023-08-17T08:59:09;1.38;;;0.95;;
35699;SDS011;21818;51.078;12.108;2023-08-17T09:01:35;3.47;;;1.30;;
35699;SDS011;21818;51.078;12.108;2023-08-17T09:04:02;1.45;;;1.10;;
35699;SDS011;21818;51.078;12.108;2023-08-17T09:06:29;1.35;;;0.90;;
35699;SDS011;21818;51.078;12.108;2023-08-17T09:08:58;2.25;;;1.08;;
35699;SDS011;21818;51.078;12.108;2023-08-17T09:11:26;2.35;;;1.23;;
35699;SDS011;21818;51.078;12.108;2023-08-17T09:13:52;3.30;;;1.10;;
35699;SDS011;21818;51.078;12.108;2023-08-17T09:16:19;2.83;;;1.00;;
35699;SDS011;21818;51.078;12.108;2023-08-17T09:18:45;3.25;;;1.17;;
35699;SDS011;21818;51.078;12.108;2023-08-17T09:21:20;1.52;;;0.70;;
35699;SDS011;21818;51.078;12.108;2023-08-17T09:23:54;1.67;;;0.85;;
35699;SDS011;21818;51.078;12.108;2023-08-17T09:26:21;5.35;;;0.88;;
35699;SDS011;21818;51.078;12.108;2023-08-17T09:28:48;2.70;;;0.88;;
35699;SDS011;21818;51.078;12.108;2023-08-17T09:31:14;1.15;;;1.02;;
35699;SDS011;21818;51.078;12.108;2023-08-17T09:33:40;1.55;;;1.00;;
35699;SDS011;21818;51.078;12.108;2023-08-17T09:36:05;2.05;;;1.00;;
35699;SDS011;21818;51.078;12.108;2023-08-17T09:38:31;2.33;;;1.30;;
35699;SDS011;21818;51.078;12.108;2023-08-17T09:40:57;2.80;;;0.88;;
35699;SDS011;21818;51.078;12.108;2023-08-17T09:43:23;1.40;;;0.80;;
35699;SDS011;21818;51.078;12.108;2023-08-17T09:45:53;1.10;;;0.85;;
35699;SDS011;21818;51.078;12.108;2023-08-17T09:48:19;1.30;;;0.93;;
35699;SDS011;21818;51.078;12.108;2023-08-17T09:50:45;1.90;;;0.80;;
35699;SDS011;21818;51.078;12.108;2023-08-17T09:53:12;2.80;;;1.00;;
35699;SDS011;21818;51.078;12.108;2023-08-17T09:55:42;3.33;;;0.90;;
35699;SDS011;21818;51.078;12.108;2023-08-17T09:58:09;1.58;;;1.20;;
35699;SDS011;21818;51.078;12.108;2023-08-17T10:00:34;3.38;;;1.10;;
35699;SDS011;21818;51.078;12.108;2023-08-17T10:03:02;1.17;;;0.80;;
35699;SDS011;21818;51.078;12.108;2023-08-17T10:05:28;2.13;;;0.90;;
35699;SDS011;21818;51.078;12.108;2023-08-17T10:07:57;1.25;;;1.10;;
35699;SDS011;21818;51.078;12.108;2023-08-17T10:10:25;2.00;;;0.98;;
35699;SDS011;21818;51.078;12.108;2023-08-17T10:15:23;1.88;;;0.88;;
35699;SDS011;21818;51.078;12.108;2023-08-17T10:21:02;4.32;;;1.17;;
35699;SDS011;21818;51.078;12.108;2023-08-17T10:23:32;0.90;;;0.70;;
35699;SDS011;21818;51.078;12.108;2023-08-17T10:25:58;1.38;;;0.70;;
35699;SDS011;21818;51.078;12.108;2023-08-17T10:28:26;2.17;;;0.93;;
35699;SDS011;21818;51.078;12.108;2023-08-17T10:30:52;1.45;;;0.75;;
35699;SDS011;21818;51.078;12.108;2023-08-17T10:33:18;1.10;;;0.73;;
35699;SDS011;21818;51.078;12.108;2023-08-17T10:35:45;1.30;;;0.98;;
35699;SDS011;21818;51.078;12.108;2023-08-17T10:38:11;1.92;;;1.10;;
35699;SDS011;21818;51.078;12.108;2023-08-17T10:40:38;1.02;;;0.77;;
35699;SDS011;21818;51.078;12.108;2023-08-17T10:43:06;1.23;;;0.70;;
35699;SDS011;21818;51.078;12.108;2023-08-17T10:45:32;1.13;;;0.90;;
35699;SDS011;21818;51.078;12.108;2023-08-17T10:50:35;1.75;;;0.90;;
35699;SDS011;21818;51.078;12.108;2023-08-17T10:53:09;1.42;;;0.90;;
35699;SDS011;21818;51.078;12.108;2023-08-17T10:55:39;1.52;;;1.20;;
35699;SDS011;21818;51.078;12.108;2023-08-17T10:58:16;1.65;;;1.00;;
35699;SDS011;21818;51.078;12.108;2023-08-17T11:00:42;2.58;;;1.90;;
35699;SDS011;21818;51.078;12.108;2023-08-17T11:03:10;2.83;;;1.25;;
35699;SDS011;21818;51.078;12.108;2023-08-17T11:05:49;0.80;;;0.60;;
35699;SDS011;21818;51.078;12.108;2023-08-17T11:08:39;1.40;;;0.80;;
35699;SDS011;21818;51.078;12.108;2023-08-17T11:11:16;1.67;;;0.95;;
35699;SDS011;21818;51.078;12.108;2023-08-17T11:13:44;2.00;;;0.80;;
35699;SDS011;21818;51.078;12.108;2023-08-17T11:16:11;2.13;;;0.90;;
35699;SDS011;21818;51.078;12.108;2023-08-17T11:18:38;2.65;;;0.60;;
35699;SDS011;21818;51.078;12.108;2023-08-17T11:21:06;2.75;;;1.13;;
35699;SDS011;21818;51.078;12.108;2023-08-17T11:23:33;1.10;;;0.82;;
35699;SDS011;21818;51.078;12.108;2023-08-17T11:26:00;1.27;;;0.80;;
35699;SDS011;21818;51.078;12.108;2023-08-17T11:28:26;1.00;;;0.75;;
35699;SDS011;21818;51.078;12.108;2023-08-17T11:31:08;1.00;;;0.70;;
35699;SDS011;21818;51.078;12.108;2023-08-17T11:33:35;1.50;;;0.70;;
35699;SDS011;21818;51.078;12.108;2023-08-17T11:36:03;1.17;;;0.90;;
35699;SDS011;21818;51.078;12.108;2023-08-17T11:38:31;2.05;;;0.90;;
35699;SDS011;21818;51.078;12.108;2023-08-17T11:41:01;0.90;;;0.70;;
35699;SDS011;21818;51.078;12.108;2023-08-17T11:43:33;1.67;;;0.90;;
35699;SDS011;21818;51.078;12.108;2023-08-17T11:45:59;1.08;;;0.75;;
35699;SDS011;21818;51.078;12.108;2023-08-17T11:48:25;1.00;;;0.60;;
35699;SDS011;21818;51.078;12.108;2023-08-17T11:50:52;1.58;;;0.80;;
35699;SDS011;21818;51.078;12.108;2023-08-17T11:53:18;1.63;;;0.70;;
35699;SDS011;21818;51.078;12.108;2023-08-17T11:55:43;1.55;;;0.88;;
35699;SDS011;21818;51.078;12.108;2023-08-17T11:58:09;0.98;;;0.88;;
35699;SDS011;21818;51.078;12.108;2023-08-17T12:00:35;1.60;;;0.70;;
35699;SDS011;21818;51.078;12.108;2023-08-17T12:03:04;1.63;;;0.80;;
35699;SDS011;21818;51.078;12.108;2023-08-17T12:05:30;0.88;;;0.65;;
35699;SDS011;21818;51.078;12.108;2023-08-17T12:07:57;1.08;;;0.80;;
35699;SDS011;21818;51.078;12.108;2023-08-17T12:10:27;0.75;;;0.65;;
35699;SDS011;21818;51.078;12.108;2023-08-17T12:12:53;0.85;;;0.70;;
35699;SDS011;21818;51.078;12.108;2023-08-17T12:15:23;1.42;;;0.70;;
35699;SDS011;21818;51.078;12.108;2023-08-17T12:17:50;0.50;;;0.50;;
35699;SDS011;21818;51.078;12.108;2023-08-17T12:20:18;1.35;;;0.90;;
35699;SDS011;21818;51.078;12.108;2023-08-17T12:22:45;0.93;;;0.75;;
35699;SDS011;21818;51.078;12.108;2023-08-17T12:25:11;1.65;;;0.60;;
35699;SDS011;21818;51.078;12.108;2023-08-17T12:27:37;1.70;;;0.80;;
35699;SDS011;21818;51.078;12.108;2023-08-17T12:30:03;0.98;;;0.52;;
35699;SDS011;21818;51.078;12.108;2023-08-17T12:32:29;1.65;;;0.90;;
35699;SDS011;21818;51.078;12.108;2023-08-17T12:34:55;1.85;;;0.95;;
35699;SDS011;21818;51.078;12.108;2023-08-17T12:37:20;1.48;;;0.85;;
35699;SDS011;21818;51.078;12.108;2023-08-17T12:39:47;0.70;;;0.60;;
35699;SDS011;21818;51.078;12.108;2023-08-17T12:42:13;1.38;;;0.80;;
35699;SDS011;21818;51.078;12.108;2023-08-17T12:44:39;1.75;;;1.00;;
35699;SDS011;21818;51.078;12.108;2023-08-17T12:47:04;1.25;;;0.90;;
35699;SDS011;21818;51.078;12.108;2023-08-17T12:49:30;1.38;;;0.80;;
35699;SDS011;21818;51.078;12.108;2023-08-17T12:51:56;0.93;;;0.70;;
35699;SDS011;21818;51.078;12.108;2023-08-17T12:54:21;1.52;;;0.85;;
35699;SDS011;21818;51.078;12.108;2023-08-17T12:56:47;1.02;;;0.68;;
35699;SDS011;21818;51.078;12.108;2023-08-17T12:59:12;1.70;;;0.85;;
35699;SDS011;21818;51.078;12.108;2023-08-17T13:01:38;1.27;;;0.85;;
35699;SDS011;21818;51.078;12.108;2023-08-17T13:04:04;2.05;;;0.70;;
35699;SDS011;21818;51.078;12.108;2023-08-17T13:06:31;2.80;;;1.10;;
35699;SDS011;21818;51.078;12.108;2023-08-17T13:08:56;0.90;;;0.68;;
35699;SDS011;21818;51.078;12.108;2023-08-17T13:11:22;1.33;;;0.85;;
35699;SDS011;21818;51.078;12.108;2023-08-17T13:13:48;1.60;;;0.50;;
35699;SDS011;21818;51.078;12.108;2023-08-17T13:16:13;1.25;;;0.68;;
35699;SDS011;21818;51.078;12.108;2023-08-17T13:18:39;0.95;;;0.50;;
35699;SDS011;21818;51.078;12.108;2023-08-17T13:21:04;1.00;;;0.60;;
35699;SDS011;21818;51.078;12.108;2023-08-17T13:23:30;1.05;;;0.70;;
35699;SDS011;21818;51.078;12.108;2023-08-17T13:25:56;1.42;;;0.80;;
35699;SDS011;21818;51.078;12.108;2023-08-17T13:28:22;1.35;;;0.80;;
35699;SDS011;21818;51.078;12.108;2023-08-17T13:30:47;1.02;;;0.68;;
35699;SDS011;21818;51.078;12.108;2023-08-17T13:33:13;1.60;;;0.68;;
35699;SDS011;21818;51.078;12.108;2023-08-17T13:35:41;1.00;;;0.70;;
35699;SDS011;21818;51.078;12.108;2023-08-17T13:38:07;1.00;;;0.77;;
35699;SDS011;21818;51.078;12.108;2023-08-17T13:40:32;1.02;;;0.80;;
35699;SDS011;21818;51.078;12.108;2023-08-17T13:42:58;1.50;;;0.73;;
35699;SDS011;21818;51.078;12.108;2023-08-17T13:45:25;4.40;;;1.25;;
35699;SDS011;21818;51.078;12.108;2023-08-17T13:47:51;1.40;;;1.08;;
35699;SDS011;21818;51.078;12.108;2023-08-17T13:50:17;2.33;;;1.52;;
35699;SDS011;21818;51.078;12.108;2023-08-17T13:52:43;4.25;;;2.00;;
35699;SDS011;21818;51.078;12.108;2023-08-17T13:55:09;3.83;;;1.80;;
35699;SDS011;21818;51.078;12.108;2023-08-17T13:57:35;1.65;;;1.30;;
35699;SDS011;21818;51.078;12.108;2023-08-17T14:00:01;3.45;;;1.90;;
35699;SDS011;21818;51.078;12.108;2023-08-17T14:02:29;2.72;;;1.80;;
35699;SDS011;21818;51.078;12.108;2023-08-17T14:04:54;4.18;;;2.10;;
35699;SDS011;21818;51.078;12.108;2023-08-17T14:07:20;6.30;;;2.97;;
35699;SDS011;21818;51.078;12.108;2023-08-17T14:09:45;4.03;;;2.53;;
35699;SDS011;21818;51.078;12.108;2023-08-17T14:12:11;4.75;;;3.55;;
35699;SDS011;21818;51.078;12.108;2023-08-17T14:14:37;4.57;;;3.10;;
35699;SDS011;21818;51.078;12.108;2023-08-17T14:17:02;5.18;;;3.83;;
35699;SDS011;21818;51.078;12.108;2023-08-17T14:19:28;7.13;;;5.25;;
35699;SDS011;21818;51.078;12.108;2023-08-17T14:21:53;4.10;;;3.63;;
35699;SDS011;21818;51.078;12.108;2023-08-17T14:24:19;5.57;;;3.63;;
35699;SDS011;21818;51.078;12.108;2023-08-17T14:26:45;11.13;;;4.95;;
35699;SDS011;21818;51.078;12.108;2023-08-17T14:29:10;4.70;;;3.97;;
35699;SDS011;21818;51.078;12.108;2023-08-17T14:31:36;6.47;;;4.50;;
35699;SDS011;21818;51.078;12.108;2023-08-17T14:34:02;5.65;;;4.40;;
35699;SDS011;21818;51.078;12.108;2023-08-17T14:36:27;10.20;;;5.07;;
35699;SDS011;21818;51.078;12.108;2023-08-17T14:38:53;6.88;;;5.18;;
35699;SDS011;21818;51.078;12.108;2023-08-17T14:41:19;7.00;;;4.70;;